sensor_id;sensor_type;location;lat;lon;timestamp;pressure;altitude;pressure_sealevel;temperature;humidity
18145;BME280;14857;41.200;-8.326;2022-10-16T00:01:47;99940.91;;;18.70;100.00
18145;BME280;14857;41.200;-8.326;2022-10-16T00:04:15;99932.78;;;18.72;100.00
18145;BME280;14857;41.200;-8.326;2022-10-16T00:06:44;99934.28;;;18.74;100.00
18145;BME280;14857;41.200;-8.326;2022-10-16T00:09:13;99933.28;;;18.67;100.00
18145;BME280;14857;41.200;-8.326;2022-10-16T00:11:41;99934.28;;;18.66;100.00
18145;BME280;14857;41.200;-8.326;2022-10-16T00:14:13;99916.06;;;18.63;100.00
18145;BME280;14857;41.200;-8.326;2022-10-16T00:16:42;99935.94;;;18.67;100.00
18145;BME280;14857;41.200;-8.326;2022-10-16T00:19:11;99924.16;;;18.54;100.00
18145;BME280;14857;41.200;-8.326;2022-10-16T00:21:40;99936.72;;;18.52;100.00
18145;BME280;14857;41.200;-8.326;2022-10-16T00:24:28;99931.69;;;18.49;100.00
18145;BME280;14857;41.200;-8.326;2022-10-16T00:26:56;99928.72;;;18.44;100.00
18145;BME280;14857;41.200;-8.326;2022-10-16T00:29:27;99917.56;;;18.58;100.00
18145;BME280;14857;41.200;-8.326;2022-10-16T00:31:56;99925.50;;;18.58;100.00
18145;BME280;14857;41.200;-8.326;2022-10-16T00:34:25;99924.78;;;18.48;100.00
18145;BME280;14857;41.200;-8.326;2022-10-16T00:36:53;99920.28;;;18.48;100.00
18145;BME280;14857;41.200;-8.326;2022-10-16T00:39:22;99915.81;;;18.49;100.00
18145;BME280;14857;41.200;-8.326;2022-10-16T00:41:51;99913.50;;;18.46;100.00
18145;BME280;14857;41.200;-8.326;2022-10-16T00:44:45;99908.78;;;18.57;100.00
18145;BME280;14857;41.200;-8.326;2022-10-16T00:47:19;99905.63;;;18.62;100.00
18145;BME280;14857;41.200;-8.326;2022-10-16T00:49:50;99903.28;;;18.59;100.00
18145;BME280;14857;41.200;-8.326;2022-10-16T00:52:19;99902.63;;;18.65;100.00
18145;BME280;14857;41.200;-8.326;2022-10-16T00:54:49;99898.69;;;18.69;100.00
18145;BME280;14857;41.200;-8.326;2022-10-16T00:57:18;99894.34;;;18.68;100.00
18145;BME280;14857;41.200;-8.326;2022-10-16T00:59:48;99892.22;;;18.71;100.00
18145;BME280;14857;41.200;-8.326;2022-10-16T01:02:17;99887.56;;;18.65;100.00
18145;BME280;14857;41.200;-8.326;2022-10-16T01:04:48;99889.91;;;18.68;100.00
18145;BME280;14857;41.200;-8.326;2022-10-16T01:07:27;99889.41;;;18.57;100.00
18145;BME280;14857;41.200;-8.326;2022-10-16T01:10:06;99882.78;;;18.61;100.00
18145;BME280;14857;41.200;-8.326;2022-10-16T01:12:40;99869.88;;;18.58;100.00
18145;BME280;14857;41.200;-8.326;2022-10-16T01:15:20;99872.81;;;18.55;100.00
18145;BME280;14857;41.200;-8.326;2022-10-16T01:17:57;99870.50;;;18.52;100.00
18145;BME280;14857;41.200;-8.326;2022-10-16T01:20:30;99855.91;;;18.40;100.00
18145;BME280;14857;41.200;-8.326;2022-10-16T01:23:10;99865.50;;;18.41;100.00
18145;BME280;14857;41.200;-8.326;2022-10-16T01:26:03;99865.81;;;18.21;100.00
18145;BME280;14857;41.200;-8.326;2022-10-16T01:28:39;99864.78;;;18.22;100.00
18145;BME280;14857;41.200;-8.326;2022-10-16T01:31:10;99858.50;;;18.23;100.00
18145;BME280;14857;41.200;-8.326;2022-10-16T01:33:44;99869.09;;;18.23;100.00
18145;BME280;14857;41.200;-8.326;2022-10-16T01:36:16;99863.66;;;18.33;100.00
18145;BME280;14857;41.200;-8.326;2022-10-16T01:38:48;99865.16;;;18.35;100.00
18145;BME280;14857;41.200;-8.326;2022-10-16T01:41:21;99858.53;;;18.40;100.00
18145;BME280;14857;41.200;-8.326;2022-10-16T01:43:57;99838.50;;;18.29;100.00
18145;BME280;14857;41.200;-8.326;2022-10-16T01:46:31;99865.84;;;18.38;100.00
18145;BME280;14857;41.200;-8.326;2022-10-16T01:49:00;99872.75;;;18.38;100.00
18145;BME280;14857;41.200;-8.326;2022-10-16T01:51:30;99868.81;;;18.34;100.00
18145;BME280;14857;41.200;-8.326;2022-10-16T01:54:00;99864.66;;;18.40;100.00
18145;BME280;14857;41.200;-8.326;2022-10-16T01:56:30;99850.28;;;18.34;100.00
18145;BME280;14857;41.200;-8.326;2022-10-16T01:59:04;99854.09;;;18.40;100.00
18145;BME280;14857;41.200;-8.326;2022-10-16T02:01:36;99865.31;;;18.42;100.00
18145;BME280;14857;41.200;-8.326;2022-10-16T02:04:10;99854.59;;;18.44;100.00
18145;BME280;14857;41.200;-8.326;2022-10-16T02:06:40;99836.34;;;18.32;100.00
18145;BME280;14857;41.200;-8.326;2022-10-16T02:09:08;99843.00;;;18.36;100.00
18145;BME280;14857;41.200;-8.326;2022-10-16T02:11:37;99849.78;;;18.31;100.00
18145;BME280;14857;41.200;-8.326;2022-10-16T02:14:07;99849.41;;;18.26;100.00
18145;BME280;14857;41.200;-8.326;2022-10-16T02:16:37;99854.19;;;18.22;100.00
18145;BME280;14857;41.200;-8.326;2022-10-16T02:19:07;99847.09;;;18.15;100.00
18145;BME280;14857;41.200;-8.326;2022-10-16T02:21:39;99853.56;;;18.28;100.00
18145;BME280;14857;41.200;-8.326;2022-10-16T02:24:15;99844.81;;;18.36;100.00
18145;BME280;14857;41.200;-8.326;2022-10-16T02:26:51;99847.63;;;18.34;100.00
18145;BME280;14857;41.200;-8.326;2022-10-16T02:29:24;99837.00;;;18.26;100.00
18145;BME280;14857;41.200;-8.326;2022-10-16T02:31:56;99827.75;;;18.30;100.00
18145;BME280;14857;41.200;-8.326;2022-10-16T02:34:27;99815.81;;;18.10;100.00
18145;BME280;14857;41.200;-8.326;2022-10-16T02:37:00;99824.44;;;18.20;100.00
18145;BME280;14857;41.200;-8.326;2022-10-16T02:39:29;99816.16;;;18.15;100.00
18145;BME280;14857;41.200;-8.326;2022-10-16T02:41:58;99815.50;;;18.21;100.00
18145;BME280;14857;41.200;-8.326;2022-10-16T02:44:28;99817.16;;;18.22;100.00
18145;BME280;14857;41.200;-8.326;2022-10-16T02:46:56;99802.44;;;18.20;100.00
18145;BME280;14857;41.200;-8.326;2022-10-16T02:49:25;99803.91;;;18.22;100.00
18145;BME280;14857;41.200;-8.326;2022-10-16T02:51:53;99808.56;;;18.28;100.00
18145;BME280;14857;41.200;-8.326;2022-10-16T02:54:22;99805.91;;;18.20;100.00
18145;BME280;14857;41.200;-8.326;2022-10-16T02:56:51;99804.91;;;18.29;100.00
18145;BME280;14857;41.200;-8.326;2022-10-16T02:59:19;99808.06;;;18.25;100.00
18145;BME280;14857;41.200;-8.326;2022-10-16T03:01:50;99802.78;;;18.25;100.00
18145;BME280;14857;41.200;-8.326;2022-10-16T03:04:18;99804.09;;;18.21;100.00
18145;BME280;14857;41.200;-8.326;2022-10-16T03:06:47;99794.13;;;18.07;100.00
18145;BME280;14857;41.200;-8.326;2022-10-16T03:09:15;99798.59;;;18.06;100.00
18145;BME280;14857;41.200;-8.326;2022-10-16T03:11:44;99807.53;;;18.05;100.00
18145;BME280;14857;41.200;-8.326;2022-10-16T03:14:12;99805.88;;;18.04;100.00
18145;BME280;14857;41.200;-8.326;2022-10-16T03:16:42;99800.56;;;18.04;100.00
18145;BME280;14857;41.200;-8.326;2022-10-16T03:19:12;99792.63;;;17.96;100.00
18145;BME280;14857;41.200;-8.326;2022-10-16T03:21:41;99790.97;;;17.95;100.00
18145;BME280;14857;41.200;-8.326;2022-10-16T03:24:09;99793.25;;;17.90;100.00
18145;BME280;14857;41.200;-8.326;2022-10-16T03:26:38;99786.66;;;17.86;100.00
18145;BME280;14857;41.200;-8.326;2022-10-16T03:29:06;99786.34;;;17.89;100.00
18145;BME280;14857;41.200;-8.326;2022-10-16T03:31:35;99776.06;;;17.86;100.00
18145;BME280;14857;41.200;-8.326;2022-10-16T03:34:03;99768.13;;;17.86;100.00
18145;BME280;14857;41.200;-8.326;2022-10-16T03:36:33;99765.31;;;17.88;100.00
18145;BME280;14857;41.200;-8.326;2022-10-16T03:39:02;99765.81;;;17.91;100.00
18145;BME280;14857;41.200;-8.326;2022-10-16T03:41:30;99766.97;;;17.89;100.00
18145;BME280;14857;41.200;-8.326;2022-10-16T03:43:59;99750.28;;;17.80;100.00
18145;BME280;14857;41.200;-8.326;2022-10-16T03:46:27;99753.25;;;17.85;100.00
18145;BME280;14857;41.200;-8.326;2022-10-16T03:48:56;99737.53;;;17.75;100.00
18145;BME280;14857;41.200;-8.326;2022-10-16T03:51:24;99746.13;;;17.77;100.00
18145;BME280;14857;41.200;-8.326;2022-10-16T03:53:54;99731.41;;;17.75;100.00
18145;BME280;14857;41.200;-8.326;2022-10-16T03:56:23;99742.00;;;17.83;100.00
18145;BME280;14857;41.200;-8.326;2022-10-16T03:58:52;99741.84;;;17.84;100.00
18145;BME280;14857;41.200;-8.326;2022-10-16T04:01:20;99732.09;;;17.85;100.00
18145;BME280;14857;41.200;-8.326;2022-10-16T04:03:48;99739.38;;;17.91;100.00
18145;BME280;14857;41.200;-8.326;2022-10-16T04:06:17;99740.06;;;17.93;100.00
18145;BME280;14857;41.200;-8.326;2022-10-16T04:08:46;99734.75;;;17.93;100.00
18145;BME280;14857;41.200;-8.326;2022-10-16T04:11:16;99737.56;;;17.92;100.00
18145;BME280;14857;41.200;-8.326;2022-10-16T04:13:44;99731.44;;;17.91;100.00
18145;BME280;14857;41.200;-8.326;2022-10-16T04:16:13;99742.66;;;17.85;100.00
18145;BME280;14857;41.200;-8.326;2022-10-16T04:18:41;99742.16;;;17.81;100.00
18145;BME280;14857;41.200;-8.326;2022-10-16T04:21:09;99743.00;;;17.82;100.00
18145;BME280;14857;41.200;-8.326;2022-10-16T04:23:38;99742.34;;;17.80;100.00
18145;BME280;14857;41.200;-8.326;2022-10-16T04:26:06;99738.69;;;17.81;100.00
18145;BME280;14857;41.200;-8.326;2022-10-16T04:28:36;99747.97;;;17.77;100.00
18145;BME280;14857;41.200;-8.326;2022-10-16T04:31:05;99743.78;;;17.74;100.00
18145;BME280;14857;41.200;-8.326;2022-10-16T04:33:34;99749.78;;;17.76;100.00
18145;BME280;14857;41.200;-8.326;2022-10-16T04:36:03;99746.13;;;17.77;100.00
18145;BME280;14857;41.200;-8.326;2022-10-16T04:38:31;99754.03;;;17.77;100.00
18145;BME280;14857;41.200;-8.326;2022-10-16T04:41:00;99758.34;;;17.78;100.00
18145;BME280;14857;41.200;-8.326;2022-10-16T04:43:29;99754.88;;;17.78;100.00
18145;BME280;14857;41.200;-8.326;2022-10-16T04:45:58;99749.78;;;17.76;100.00
18145;BME280;14857;41.200;-8.326;2022-10-16T04:48:27;99757.38;;;17.79;100.00
18145;BME280;14857;41.200;-8.326;2022-10-16T04:50:56;99759.50;;;17.76;100.00
18145;BME280;14857;41.200;-8.326;2022-10-16T04:53:24;99753.25;;;17.77;100.00
18145;BME280;14857;41.200;-8.326;2022-10-16T04:55:53;99744.16;;;17.79;100.00
18145;BME280;14857;41.200;-8.326;2022-10-16T04:58:22;99756.88;;;17.76;100.00
18145;BME280;14857;41.200;-8.326;2022-10-16T05:03:55;99740.50;;;17.72;100.00
18145;BME280;14857;41.200;-8.326;2022-10-16T05:06:23;99747.91;;;17.69;100.00
18145;BME280;14857;41.200;-8.326;2022-10-16T05:08:52;99752.56;;;17.67;100.00
18145;BME280;14857;41.200;-8.326;2022-10-16T05:11:20;99757.34;;;17.71;100.00
18145;BME280;14857;41.200;-8.326;2022-10-16T05:13:49;99750.88;;;17.66;100.00
18145;BME280;14857;41.200;-8.326;2022-10-16T05:16:21;99749.59;;;17.70;100.00
18145;BME280;14857;41.200;-8.326;2022-10-16T05:18:51;99758.19;;;17.72;100.00
18145;BME280;14857;41.200;-8.326;2022-10-16T05:21:31;99758.81;;;17.74;100.00
18145;BME280;14857;41.200;-8.326;2022-10-16T05:24:00;99760.81;;;17.72;100.00
18145;BME280;14857;41.200;-8.326;2022-10-16T05:26:28;99762.63;;;17.71;100.00
18145;BME280;14857;41.200;-8.326;2022-10-16T05:28:57;99775.53;;;17.74;100.00
18145;BME280;14857;41.200;-8.326;2022-10-16T05:31:25;99774.22;;;17.78;100.00
18145;BME280;14857;41.200;-8.326;2022-10-16T05:33:58;99787.97;;;17.82;100.00
18145;BME280;14857;41.200;-8.326;2022-10-16T05:36:27;99794.41;;;17.88;100.00
18145;BME280;14857;41.200;-8.326;2022-10-16T05:38:57;99801.06;;;18.00;100.00
18145;BME280;14857;41.200;-8.326;2022-10-16T05:41:25;99801.22;;;18.06;100.00
18145;BME280;14857;41.200;-8.326;2022-10-16T05:43:54;99813.47;;;18.07;100.00
18145;BME280;14857;41.200;-8.326;2022-10-16T05:46:22;99817.47;;;18.11;100.00
18145;BME280;14857;41.200;-8.326;2022-10-16T05:48:52;99816.63;;;18.03;100.00
18145;BME280;14857;41.200;-8.326;2022-10-16T05:51:21;99818.06;;;17.89;100.00
18145;BME280;14857;41.200;-8.326;2022-10-16T05:53:49;99824.34;;;17.80;100.00
18145;BME280;14857;41.200;-8.326;2022-10-16T05:56:19;99835.16;;;17.61;100.00
18145;BME280;14857;41.200;-8.326;2022-10-16T05:58:47;99846.31;;;17.55;100.00
18145;BME280;14857;41.200;-8.326;2022-10-16T06:01:17;99852.94;;;17.51;100.00
18145;BME280;14857;41.200;-8.326;2022-10-16T06:03:48;99840.81;;;17.40;100.00
18145;BME280;14857;41.200;-8.326;2022-10-16T06:06:18;99841.97;;;17.46;100.00
18145;BME280;14857;41.200;-8.326;2022-10-16T06:08:48;99845.91;;;17.42;100.00
18145;BME280;14857;41.200;-8.326;2022-10-16T06:11:20;99851.19;;;17.33;100.00
18145;BME280;14857;41.200;-8.326;2022-10-16T06:13:49;99855.00;;;17.39;100.00
18145;BME280;14857;41.200;-8.326;2022-10-16T06:16:18;99855.19;;;17.38;100.00
18145;BME280;14857;41.200;-8.326;2022-10-16T06:18:46;99850.19;;;17.35;100.00
18145;BME280;14857;41.200;-8.326;2022-10-16T06:21:18;99849.19;;;17.36;100.00
18145;BME280;14857;41.200;-8.326;2022-10-16T06:23:47;99845.53;;;17.28;100.00
18145;BME280;14857;41.200;-8.326;2022-10-16T06:26:18;99861.56;;;17.35;100.00
18145;BME280;14857;41.200;-8.326;2022-10-16T06:28:48;99855.31;;;17.36;100.00
18145;BME280;14857;41.200;-8.326;2022-10-16T06:31:17;99845.91;;;17.42;100.00
18145;BME280;14857;41.200;-8.326;2022-10-16T06:33:50;99845.63;;;17.45;100.00
18145;BME280;14857;41.200;-8.326;2022-10-16T06:36:19;99848.63;;;17.50;100.00
18145;BME280;14857;41.200;-8.326;2022-10-16T06:38:48;99836.69;;;17.46;100.00
18145;BME280;14857;41.200;-8.326;2022-10-16T06:41:18;99847.69;;;17.59;100.00
18145;BME280;14857;41.200;-8.326;2022-10-16T06:43:49;99845.22;;;17.57;100.00
18145;BME280;14857;41.200;-8.326;2022-10-16T06:46:19;99843.56;;;17.56;100.00
18145;BME280;14857;41.200;-8.326;2022-10-16T06:48:48;99849.06;;;17.63;100.00
18145;BME280;14857;41.200;-8.326;2022-10-16T06:51:18;99856.50;;;17.67;100.00
18145;BME280;14857;41.200;-8.326;2022-10-16T06:53:49;99865.78;;;17.71;100.00
18145;BME280;14857;41.200;-8.326;2022-10-16T06:56:30;99866.59;;;17.72;100.00
18145;BME280;14857;41.200;-8.326;2022-10-16T06:59:01;99866.91;;;17.61;100.00
18145;BME280;14857;41.200;-8.326;2022-10-16T07:01:30;99867.13;;;17.50;100.00
18145;BME280;14857;41.200;-8.326;2022-10-16T07:04:00;99868.09;;;17.49;100.00
18145;BME280;14857;41.200;-8.326;2022-10-16T07:06:31;99873.34;;;17.41;100.00
18145;BME280;14857;41.200;-8.326;2022-10-16T07:09:03;99869.13;;;17.48;100.00
18145;BME280;14857;41.200;-8.326;2022-10-16T07:11:32;99858.22;;;17.51;100.00
18145;BME280;14857;41.200;-8.326;2022-10-16T07:14:03;99861.91;;;17.58;100.00
18145;BME280;14857;41.200;-8.326;2022-10-16T07:16:32;99866.91;;;17.61;100.00
18145;BME280;14857;41.200;-8.326;2022-10-16T07:19:02;99867.38;;;17.64;100.00
18145;BME280;14857;41.200;-8.326;2022-10-16T07:21:32;99867.06;;;17.67;100.00
18145;BME280;14857;41.200;-8.326;2022-10-16T07:24:05;99864.28;;;17.69;100.00
18145;BME280;14857;41.200;-8.326;2022-10-16T07:26:36;99868.63;;;17.78;100.00
18145;BME280;14857;41.200;-8.326;2022-10-16T07:29:11;99862.66;;;17.76;100.00
18145;BME280;14857;41.200;-8.326;2022-10-16T07:31:40;99862.81;;;17.74;100.00
18145;BME280;14857;41.200;-8.326;2022-10-16T07:34:10;99856.41;;;17.77;100.00
18145;BME280;14857;41.200;-8.326;2022-10-16T07:36:39;99862.03;;;17.82;100.00
18145;BME280;14857;41.200;-8.326;2022-10-16T07:39:12;99845.19;;;17.83;100.00
18145;BME280;14857;41.200;-8.326;2022-10-16T07:41:41;99861.56;;;17.87;100.00
18145;BME280;14857;41.200;-8.326;2022-10-16T07:44:11;99846.53;;;17.95;100.00
18145;BME280;14857;41.200;-8.326;2022-10-16T07:46:39;99837.63;;;18.04;100.00
18145;BME280;14857;41.200;-8.326;2022-10-16T07:49:08;99841.94;;;18.13;100.00
18145;BME280;14857;41.200;-8.326;2022-10-16T07:51:37;99840.97;;;18.22;100.00
18145;BME280;14857;41.200;-8.326;2022-10-16T07:54:08;99841.31;;;18.27;100.00
18145;BME280;14857;41.200;-8.326;2022-10-16T07:56:36;99847.78;;;18.33;100.00
18145;BME280;14857;41.200;-8.326;2022-10-16T07:59:11;99845.63;;;18.36;100.00
18145;BME280;14857;41.200;-8.326;2022-10-16T08:01:40;99841.00;;;18.38;100.00
18145;BME280;14857;41.200;-8.326;2022-10-16T08:04:10;99860.59;;;18.54;100.00
18145;BME280;14857;41.200;-8.326;2022-10-16T08:06:39;99840.75;;;18.58;100.00
18145;BME280;14857;41.200;-8.326;2022-10-16T08:09:08;99833.44;;;18.60;100.00
18145;BME280;14857;41.200;-8.326;2022-10-16T08:11:37;99832.13;;;18.72;100.00
18145;BME280;14857;41.200;-8.326;2022-10-16T08:14:06;99836.94;;;18.76;100.00
18145;BME280;14857;41.200;-8.326;2022-10-16T08:16:36;99828.47;;;18.89;100.00
18145;BME280;14857;41.200;-8.326;2022-10-16T08:19:04;99839.72;;;18.99;100.00
18145;BME280;14857;41.200;-8.326;2022-10-16T08:21:33;99838.72;;;19.08;100.00
18145;BME280;14857;41.200;-8.326;2022-10-16T08:24:01;99840.38;;;19.09;100.00
18145;BME280;14857;41.200;-8.326;2022-10-16T08:26:30;99821.19;;;18.91;100.00
18145;BME280;14857;41.200;-8.326;2022-10-16T08:28:58;99833.75;;;19.05;100.00
18145;BME280;14857;41.200;-8.326;2022-10-16T08:31:27;99834.41;;;19.15;100.00
18145;BME280;14857;41.200;-8.326;2022-10-16T08:33:57;99832.22;;;19.27;100.00
18145;BME280;14857;41.200;-8.326;2022-10-16T08:36:25;99829.06;;;19.31;100.00
18145;BME280;14857;41.200;-8.326;2022-10-16T08:38:53;99833.00;;;19.52;100.00
18145;BME280;14857;41.200;-8.326;2022-10-16T08:47:19;99826.53;;;19.93;100.00
18145;BME280;14857;41.200;-8.326;2022-10-16T08:49:56;99825.78;;;20.07;100.00
18145;BME280;14857;41.200;-8.326;2022-10-16T08:52:29;99820.13;;;19.79;100.00
18145;BME280;14857;41.200;-8.326;2022-10-16T08:54:58;99821.97;;;19.79;100.00
18145;BME280;14857;41.200;-8.326;2022-10-16T08:57:26;99828.66;;;19.98;100.00
18145;BME280;14857;41.200;-8.326;2022-10-16T09:00:00;99825.84;;;20.30;100.00
18145;BME280;14857;41.200;-8.326;2022-10-16T09:02:32;99819.38;;;20.92;100.00
18145;BME280;14857;41.200;-8.326;2022-10-16T09:05:16;99820.47;;;20.98;100.00
18145;BME280;14857;41.200;-8.326;2022-10-16T09:07:54;99830.91;;;20.62;100.00
18145;BME280;14857;41.200;-8.326;2022-10-16T09:10:37;99831.75;;;20.63;100.00
18145;BME280;14857;41.200;-8.326;2022-10-16T09:13:17;99834.41;;;20.63;100.00
18145;BME280;14857;41.200;-8.326;2022-10-16T09:15:54;99836.78;;;20.58;100.00
18145;BME280;14857;41.200;-8.326;2022-10-16T09:18:29;99836.81;;;20.72;100.00
18145;BME280;14857;41.200;-8.326;2022-10-16T09:21:08;99831.81;;;20.32;100.00
18145;BME280;14857;41.200;-8.326;2022-10-16T09:23:39;99836.47;;;20.30;100.00
18145;BME280;14857;41.200;-8.326;2022-10-16T09:26:11;99837.06;;;20.40;100.00
18145;BME280;14857;41.200;-8.326;2022-10-16T09:28:40;99826.19;;;20.50;100.00
18145;BME280;14857;41.200;-8.326;2022-10-16T09:31:15;99821.50;;;20.74;100.00
18145;BME280;14857;41.200;-8.326;2022-10-16T09:33:48;99830.69;;;20.72;100.00
18145;BME280;14857;41.200;-8.326;2022-10-16T09:36:20;99829.41;;;20.68;100.00
18145;BME280;14857;41.200;-8.326;2022-10-16T09:38:50;99817.13;;;20.81;100.00
18145;BME280;14857;41.200;-8.326;2022-10-16T09:41:22;99812.09;;;21.09;100.00
18145;BME280;14857;41.200;-8.326;2022-10-16T09:43:54;99793.34;;;21.76;100.00
18145;BME280;14857;41.200;-8.326;2022-10-16T09:46:29;99784.28;;;22.42;100.00
18145;BME280;14857;41.200;-8.326;2022-10-16T09:49:00;99790.53;;;22.77;100.00
18145;BME280;14857;41.200;-8.326;2022-10-16T09:51:31;99784.06;;;23.20;100.00
18145;BME280;14857;41.200;-8.326;2022-10-16T09:54:11;99791.06;;;22.66;100.00
18145;BME280;14857;41.200;-8.326;2022-10-16T09:56:40;99782.66;;;22.69;100.00
18145;BME280;14857;41.200;-8.326;2022-10-16T09:59:14;99788.94;;;22.82;100.00
18145;BME280;14857;41.200;-8.326;2022-10-16T10:01:46;99786.16;;;22.69;100.00
18145;BME280;14857;41.200;-8.326;2022-10-16T10:04:15;99795.38;;;22.67;100.00
18145;BME280;14857;41.200;-8.326;2022-10-16T10:06:47;99792.72;;;22.94;100.00
18145;BME280;14857;41.200;-8.326;2022-10-16T10:09:19;99797.13;;;22.17;100.00
18145;BME280;14857;41.200;-8.326;2022-10-16T10:11:51;99794.63;;;21.94;100.00
18145;BME280;14857;41.200;-8.326;2022-10-16T10:14:30;99802.50;;;21.88;100.00
18145;BME280;14857;41.200;-8.326;2022-10-16T10:17:16;99811.09;;;21.39;100.00
18145;BME280;14857;41.200;-8.326;2022-10-16T10:19:48;99815.50;;;21.18;100.00
18145;BME280;14857;41.200;-8.326;2022-10-16T10:22:26;99818.81;;;20.97;100.00
18145;BME280;14857;41.200;-8.326;2022-10-16T10:24:59;99820.56;;;20.90;100.00
18145;BME280;14857;41.200;-8.326;2022-10-16T10:27:37;99810.00;;;20.82;100.00
18145;BME280;14857;41.200;-8.326;2022-10-16T10:30:14;99813.47;;;20.82;100.00
18145;BME280;14857;41.200;-8.326;2022-10-16T10:32:52;99806.03;;;20.78;100.00
18145;BME280;14857;41.200;-8.326;2022-10-16T10:35:31;99802.38;;;20.79;100.00
18145;BME280;14857;41.200;-8.326;2022-10-16T10:38:20;99807.06;;;20.77;100.00
18145;BME280;14857;41.200;-8.326;2022-10-16T10:40:52;99811.44;;;20.70;100.00
18145;BME280;14857;41.200;-8.326;2022-10-16T10:43:33;99806.69;;;20.80;100.00
18145;BME280;14857;41.200;-8.326;2022-10-16T10:46:11;99815.44;;;20.66;100.00
18145;BME280;14857;41.200;-8.326;2022-10-16T10:48:54;99803.00;;;20.81;100.00
18145;BME280;14857;41.200;-8.326;2022-10-16T10:51:31;99799.22;;;20.98;100.00
18145;BME280;14857;41.200;-8.326;2022-10-16T10:54:13;99784.03;;;21.21;100.00
18145;BME280;14857;41.200;-8.326;2022-10-16T10:56:49;99796.50;;;21.65;100.00
18145;BME280;14857;41.200;-8.326;2022-10-16T10:59:43;99788.41;;;21.73;100.00
18145;BME280;14857;41.200;-8.326;2022-10-16T11:02:22;99781.25;;;21.59;100.00
18145;BME280;14857;41.200;-8.326;2022-10-16T11:05:08;99779.72;;;21.64;100.00
18145;BME280;14857;41.200;-8.326;2022-10-16T11:07:45;99778.88;;;21.64;100.00
18145;BME280;14857;41.200;-8.326;2022-10-16T11:10:21;99777.63;;;21.30;100.00
18145;BME280;14857;41.200;-8.326;2022-10-16T11:12:52;99779.81;;;21.12;100.00
18145;BME280;14857;41.200;-8.326;2022-10-16T11:15:26;99786.06;;;21.19;100.00
18145;BME280;14857;41.200;-8.326;2022-10-16T11:18:00;99780.38;;;21.22;100.00
18145;BME280;14857;41.200;-8.326;2022-10-16T11:20:33;99784.97;;;21.28;100.00
18145;BME280;14857;41.200;-8.326;2022-10-16T11:23:11;99782.69;;;21.25;100.00
18145;BME280;14857;41.200;-8.326;2022-10-16T11:25:45;99783.34;;;21.05;100.00
18145;BME280;14857;41.200;-8.326;2022-10-16T11:28:16;99778.75;;;20.84;100.00
18145;BME280;14857;41.200;-8.326;2022-10-16T11:30:50;99776.25;;;20.68;100.00
18145;BME280;14857;41.200;-8.326;2022-10-16T11:33:26;99778.19;;;20.74;100.00
18145;BME280;14857;41.200;-8.326;2022-10-16T11:36:06;99779.53;;;20.70;100.00
18145;BME280;14857;41.200;-8.326;2022-10-16T11:38:43;99785.13;;;20.75;100.00
18145;BME280;14857;41.200;-8.326;2022-10-16T11:41:24;99778.56;;;20.71;100.00
18145;BME280;14857;41.200;-8.326;2022-10-16T11:46:55;99751.63;;;20.88;100.00
18145;BME280;14857;41.200;-8.326;2022-10-16T11:49:47;99750.69;;;20.81;100.00
18145;BME280;14857;41.200;-8.326;2022-10-16T11:52:22;99770.97;;;20.97;100.00
18145;BME280;14857;41.200;-8.326;2022-10-16T11:54:56;99764.75;;;20.90;100.00
18145;BME280;14857;41.200;-8.326;2022-10-16T11:57:32;99761.53;;;20.94;100.00
18145;BME280;14857;41.200;-8.326;2022-10-16T12:00:06;99747.91;;;21.12;100.00
18145;BME280;14857;41.200;-8.326;2022-10-16T12:02:49;99762.03;;;21.27;100.00
18145;BME280;14857;41.200;-8.326;2022-10-16T12:05:25;99747.72;;;21.28;100.00
18145;BME280;14857;41.200;-8.326;2022-10-16T12:08:06;99743.50;;;21.49;100.00
18145;BME280;14857;41.200;-8.326;2022-10-16T12:10:40;99752.72;;;21.53;100.00
18145;BME280;14857;41.200;-8.326;2022-10-16T12:13:30;99743.00;;;21.60;100.00
18145;BME280;14857;41.200;-8.326;2022-10-16T12:16:16;99738.19;;;21.70;100.00
18145;BME280;14857;41.200;-8.326;2022-10-16T12:18:48;99741.47;;;21.51;100.00
18145;BME280;14857;41.200;-8.326;2022-10-16T12:21:17;99747.41;;;21.53;100.00
18145;BME280;14857;41.200;-8.326;2022-10-16T12:23:51;99740.16;;;21.61;100.00
18145;BME280;14857;41.200;-8.326;2022-10-16T12:26:24;99750.59;;;21.63;100.00
18145;BME280;14857;41.200;-8.326;2022-10-16T12:29:12;99736.66;;;21.61;100.00
18145;BME280;14857;41.200;-8.326;2022-10-16T12:31:44;99723.00;;;21.85;100.00
18145;BME280;14857;41.200;-8.326;2022-10-16T12:34:27;99717.59;;;22.14;100.00
18145;BME280;14857;41.200;-8.326;2022-10-16T12:37:09;99708.78;;;22.14;100.00
18145;BME280;14857;41.200;-8.326;2022-10-16T12:39:41;99702.53;;;21.85;100.00
18145;BME280;14857;41.200;-8.326;2022-10-16T12:42:31;99715.38;;;21.96;100.00
18145;BME280;14857;41.200;-8.326;2022-10-16T12:45:22;99718.63;;;21.77;100.00
18145;BME280;14857;41.200;-8.326;2022-10-16T12:47:53;99719.66;;;21.62;100.00
18145;BME280;14857;41.200;-8.326;2022-10-16T12:50:28;99729.97;;;21.50;100.00
18145;BME280;14857;41.200;-8.326;2022-10-16T12:52:59;99738.09;;;21.42;100.00
18145;BME280;14857;41.200;-8.326;2022-10-16T12:55:34;99729.81;;;21.37;100.00
18145;BME280;14857;41.200;-8.326;2022-10-16T12:58:20;99713.19;;;21.50;100.00
18145;BME280;14857;41.200;-8.326;2022-10-16T13:00:57;99725.13;;;21.54;100.00
18145;BME280;14857;41.200;-8.326;2022-10-16T13:04:02;99727.84;;;21.60;100.00
18145;BME280;14857;41.200;-8.326;2022-10-16T13:06:40;99720.41;;;21.70;100.00
18145;BME280;14857;41.200;-8.326;2022-10-16T13:09:38;99714.56;;;21.96;100.00
18145;BME280;14857;41.200;-8.326;2022-10-16T13:12:23;99698.06;;;22.07;100.00
18145;BME280;14857;41.200;-8.326;2022-10-16T13:15:12;99692.28;;;22.25;100.00
18145;BME280;14857;41.200;-8.326;2022-10-16T13:17:52;99684.75;;;22.28;100.00
18145;BME280;14857;41.200;-8.326;2022-10-16T13:20:29;99690.25;;;22.27;100.00